Lake Fork, Illinois
Current Conditions -  °F | °C
As of 7:15 PM on Tuesday 27 Jan 2015 (Local Time) from KAAA Reporting Station
Overcast Overcast  
Wind Chill: 33°   Ceiling: 2000
Heat Index: 33°   Visibility: 10mi
Dew Point: 26°   Wind: 0mph
Humidity: 74%   Direction: NA
Pressure: 30.26"   Gusts: NA
Location:  39.97°N, 89.35°W
Report Text: KAAA 280115Z AUTO 00000KT 10SM OVC020 01/M04 A3026 RMK AO2 T00051036
Loading
Personal Weather Stations






























Interactive Weather Map New forecast layout! Learn more

10-Day Weather Forecast

Advertisements
Track Severe Weather on mobile